Terminal Aerodrome Forecast
Issued by NWS

Home | Current Version | Previous Version | Text Only | Print | Product List | Glossary On
Versions: 1 2 3 4 5 6 7 8 9 10 11 12 13 14 15 16 17 18 19 20 21 22 23 24 25
000
FTPA31 PHFO 301700
TAFJHM
TAF
PHJH 301736Z 3018/3118 05010KT P6SM -SHRA FEW025 BKN050
     FM302000 05013G21KT P6SM VCSH FEW025 BKN050
     FM310400 05010KT P6SM SCT060
      AMD NOT SKED AFT 310400=

USA.gov is the U.S. government's official web portal to all federal, state and local government web resources and services.